sensor_id;sensor_type;location;lat;lon;timestamp;temperature;humidity
16578;DHT22;8401;52.528;13.340;2022-09-17T00:02:21;11.70;99.90
16578;DHT22;8401;52.528;13.340;2022-09-17T00:04:48;11.70;99.90
16578;DHT22;8401;52.528;13.340;2022-09-17T00:07:13;11.70;99.90
16578;DHT22;8401;52.528;13.340;2022-09-17T00:09:40;11.80;99.90
16578;DHT22;8401;52.528;13.340;2022-09-17T00:12:05;11.80;99.90
16578;DHT22;8401;52.528;13.340;2022-09-17T00:14:31;11.80;99.90
16578;DHT22;8401;52.528;13.340;2022-09-17T00:16:56;11.70;99.90
16578;DHT22;8401;52.528;13.340;2022-09-17T00:19:22;11.70;99.90
16578;DHT22;8401;52.528;13.340;2022-09-17T00:21:49;11.80;99.90
16578;DHT22;8401;52.528;13.340;2022-09-17T00:24:19;11.80;99.90
16578;DHT22;8401;52.528;13.340;2022-09-17T00:26:46;11.80;99.90
16578;DHT22;8401;52.528;13.340;2022-09-17T00:29:12;11.80;99.90
16578;DHT22;8401;52.528;13.340;2022-09-17T00:31:38;11.80;99.90
16578;DHT22;8401;52.528;13.340;2022-09-17T00:34:04;11.90;99.90
16578;DHT22;8401;52.528;13.340;2022-09-17T00:36:33;11.90;99.90
16578;DHT22;8401;52.528;13.340;2022-09-17T00:38:59;11.90;99.90
16578;DHT22;8401;52.528;13.340;2022-09-17T00:41:27;11.90;99.90
16578;DHT22;8401;52.528;13.340;2022-09-17T00:43:59;11.90;99.90
16578;DHT22;8401;52.528;13.340;2022-09-17T00:46:41;11.90;99.90
16578;DHT22;8401;52.528;13.340;2022-09-17T00:49:13;11.90;99.90
16578;DHT22;8401;52.528;13.340;2022-09-17T00:54:19;11.90;99.90
16578;DHT22;8401;52.528;13.340;2022-09-17T00:56:46;12.00;99.90
16578;DHT22;8401;52.528;13.340;2022-09-17T00:59:13;11.90;99.90
16578;DHT22;8401;52.528;13.340;2022-09-17T01:01:39;12.00;99.90
16578;DHT22;8401;52.528;13.340;2022-09-17T01:04:04;12.00;99.90
16578;DHT22;8401;52.528;13.340;2022-09-17T01:06:40;12.00;99.90
16578;DHT22;8401;52.528;13.340;2022-09-17T01:12:07;12.00;99.90
16578;DHT22;8401;52.528;13.340;2022-09-17T01:14:45;12.00;99.90
16578;DHT22;8401;52.528;13.340;2022-09-17T01:22:48;12.00;99.90
16578;DHT22;8401;52.528;13.340;2022-09-17T01:25:44;12.10;99.90
16578;DHT22;8401;52.528;13.340;2022-09-17T01:36:57;12.00;99.90
16578;DHT22;8401;52.528;13.340;2022-09-17T01:41:59;12.00;99.90
16578;DHT22;8401;52.528;13.340;2022-09-17T01:44:36;12.00;99.90
16578;DHT22;8401;52.528;13.340;2022-09-17T01:47:16;12.00;99.90
16578;DHT22;8401;52.528;13.340;2022-09-17T01:49:44;12.00;99.90
16578;DHT22;8401;52.528;13.340;2022-09-17T01:52:12;12.10;99.90
16578;DHT22;8401;52.528;13.340;2022-09-17T01:54:43;12.00;99.90
16578;DHT22;8401;52.528;13.340;2022-09-17T01:57:18;11.90;99.90
16578;DHT22;8401;52.528;13.340;2022-09-17T01:59:54;11.90;99.90
16578;DHT22;8401;52.528;13.340;2022-09-17T02:02:29;11.90;99.90
16578;DHT22;8401;52.528;13.340;2022-09-17T02:05:14;11.90;99.90
16578;DHT22;8401;52.528;13.340;2022-09-17T02:07:45;11.90;99.90
16578;DHT22;8401;52.528;13.340;2022-09-17T02:10:18;11.90;99.90
16578;DHT22;8401;52.528;13.340;2022-09-17T02:12:49;11.90;99.90
16578;DHT22;8401;52.528;13.340;2022-09-17T02:15:24;11.90;99.90
16578;DHT22;8401;52.528;13.340;2022-09-17T02:20:40;11.90;99.90
16578;DHT22;8401;52.528;13.340;2022-09-17T02:23:14;11.90;99.90
16578;DHT22;8401;52.528;13.340;2022-09-17T02:25:57;12.00;99.90
16578;DHT22;8401;52.528;13.340;2022-09-17T02:28:55;12.00;99.90
16578;DHT22;8401;52.528;13.340;2022-09-17T02:31:21;12.00;99.90
16578;DHT22;8401;52.528;13.340;2022-09-17T02:33:50;12.00;99.90
16578;DHT22;8401;52.528;13.340;2022-09-17T02:36:17;12.00;99.90
16578;DHT22;8401;52.528;13.340;2022-09-17T02:38:44;12.10;99.90
16578;DHT22;8401;52.528;13.340;2022-09-17T02:52:11;12.00;99.90
16578;DHT22;8401;52.528;13.340;2022-09-17T03:00:19;12.00;99.90
16578;DHT22;8401;52.528;13.340;2022-09-17T03:03:05;12.00;99.90
16578;DHT22;8401;52.528;13.340;2022-09-17T03:05:33;12.10;99.90
16578;DHT22;8401;52.528;13.340;2022-09-17T03:08:01;12.10;99.90
16578;DHT22;8401;52.528;13.340;2022-09-17T03:10:26;12.10;99.90
16578;DHT22;8401;52.528;13.340;2022-09-17T03:12:58;12.10;99.90
16578;DHT22;8401;52.528;13.340;2022-09-17T03:15:23;12.10;99.90
16578;DHT22;8401;52.528;13.340;2022-09-17T03:17:49;12.10;99.90
16578;DHT22;8401;52.528;13.340;2022-09-17T03:20:15;12.10;99.90
16578;DHT22;8401;52.528;13.340;2022-09-17T03:22:41;12.10;99.90
16578;DHT22;8401;52.528;13.340;2022-09-17T03:25:07;12.10;99.90
16578;DHT22;8401;52.528;13.340;2022-09-17T03:27:33;12.20;99.90
16578;DHT22;8401;52.528;13.340;2022-09-17T03:29:59;12.20;99.90
16578;DHT22;8401;52.528;13.340;2022-09-17T03:32:25;12.20;99.90
16578;DHT22;8401;52.528;13.340;2022-09-17T03:34:50;12.20;99.90
16578;DHT22;8401;52.528;13.340;2022-09-17T03:37:16;12.20;99.90
16578;DHT22;8401;52.528;13.340;2022-09-17T03:39:41;12.30;99.90
16578;DHT22;8401;52.528;13.340;2022-09-17T03:42:07;12.30;99.90
16578;DHT22;8401;52.528;13.340;2022-09-17T03:44:33;12.30;99.90
16578;DHT22;8401;52.528;13.340;2022-09-17T03:46:58;12.30;99.90
16578;DHT22;8401;52.528;13.340;2022-09-17T03:49:24;12.30;99.90
16578;DHT22;8401;52.528;13.340;2022-09-17T03:51:50;12.30;99.90
16578;DHT22;8401;52.528;13.340;2022-09-17T03:54:15;12.30;99.90
16578;DHT22;8401;52.528;13.340;2022-09-17T03:56:42;12.30;99.90
16578;DHT22;8401;52.528;13.340;2022-09-17T03:59:07;12.20;99.90
16578;DHT22;8401;52.528;13.340;2022-09-17T04:01:33;12.20;99.90
16578;DHT22;8401;52.528;13.340;2022-09-17T04:04:01;12.20;99.90
16578;DHT22;8401;52.528;13.340;2022-09-17T04:06:26;12.20;99.90
16578;DHT22;8401;52.528;13.340;2022-09-17T04:08:52;12.20;99.90
16578;DHT22;8401;52.528;13.340;2022-09-17T04:11:18;12.30;99.90
16578;DHT22;8401;52.528;13.340;2022-09-17T04:13:43;12.30;99.90
16578;DHT22;8401;52.528;13.340;2022-09-17T04:16:09;12.30;99.90
16578;DHT22;8401;52.528;13.340;2022-09-17T04:18:34;12.40;99.90
16578;DHT22;8401;52.528;13.340;2022-09-17T04:21:00;12.40;99.90
16578;DHT22;8401;52.528;13.340;2022-09-17T04:23:25;12.40;99.90
16578;DHT22;8401;52.528;13.340;2022-09-17T04:25:51;12.40;99.90
16578;DHT22;8401;52.528;13.340;2022-09-17T04:28:17;12.40;99.90
16578;DHT22;8401;52.528;13.340;2022-09-17T04:30:42;12.40;99.90
16578;DHT22;8401;52.528;13.340;2022-09-17T04:33:08;12.40;99.90
16578;DHT22;8401;52.528;13.340;2022-09-17T04:35:34;12.40;99.90
16578;DHT22;8401;52.528;13.340;2022-09-17T04:38:00;12.40;99.90
16578;DHT22;8401;52.528;13.340;2022-09-17T04:40:26;12.50;99.90
16578;DHT22;8401;52.528;13.340;2022-09-17T04:42:56;12.50;99.90
16578;DHT22;8401;52.528;13.340;2022-09-17T04:45:24;12.50;99.90
16578;DHT22;8401;52.528;13.340;2022-09-17T04:47:50;12.40;99.90
16578;DHT22;8401;52.528;13.340;2022-09-17T04:50:17;12.50;99.90
16578;DHT22;8401;52.528;13.340;2022-09-17T04:52:44;12.50;99.90
16578;DHT22;8401;52.528;13.340;2022-09-17T04:55:10;12.40;99.90
16578;DHT22;8401;52.528;13.340;2022-09-17T04:57:36;12.50;99.90
16578;DHT22;8401;52.528;13.340;2022-09-17T05:00:03;12.40;99.90
16578;DHT22;8401;52.528;13.340;2022-09-17T05:02:29;12.50;99.90
16578;DHT22;8401;52.528;13.340;2022-09-17T05:04:54;12.50;99.90
16578;DHT22;8401;52.528;13.340;2022-09-17T05:07:21;12.40;99.90
16578;DHT22;8401;52.528;13.340;2022-09-17T05:09:46;12.50;99.90
16578;DHT22;8401;52.528;13.340;2022-09-17T05:12:12;12.40;99.90
16578;DHT22;8401;52.528;13.340;2022-09-17T05:14:38;12.50;99.90
16578;DHT22;8401;52.528;13.340;2022-09-17T05:17:03;12.40;99.90
16578;DHT22;8401;52.528;13.340;2022-09-17T05:19:29;12.40;99.90
16578;DHT22;8401;52.528;13.340;2022-09-17T05:21:55;12.40;99.90
16578;DHT22;8401;52.528;13.340;2022-09-17T05:24:20;12.40;99.90
16578;DHT22;8401;52.528;13.340;2022-09-17T05:26:46;12.50;99.90
16578;DHT22;8401;52.528;13.340;2022-09-17T05:29:11;12.50;99.90
16578;DHT22;8401;52.528;13.340;2022-09-17T05:31:37;12.50;99.90
16578;DHT22;8401;52.528;13.340;2022-09-17T05:34:02;12.50;99.90
16578;DHT22;8401;52.528;13.340;2022-09-17T05:36:28;12.50;99.90
16578;DHT22;8401;52.528;13.340;2022-09-17T05:38:54;12.60;99.90
16578;DHT22;8401;52.528;13.340;2022-09-17T05:41:19;12.50;99.90
16578;DHT22;8401;52.528;13.340;2022-09-17T05:43:45;12.60;99.90
16578;DHT22;8401;52.528;13.340;2022-09-17T05:46:10;12.60;99.90
16578;DHT22;8401;52.528;13.340;2022-09-17T05:48:36;12.60;99.90
16578;DHT22;8401;52.528;13.340;2022-09-17T05:51:02;12.70;99.90
16578;DHT22;8401;52.528;13.340;2022-09-17T05:53:27;12.70;99.90
16578;DHT22;8401;52.528;13.340;2022-09-17T05:55:57;12.70;99.90
16578;DHT22;8401;52.528;13.340;2022-09-17T05:58:23;12.70;99.90
16578;DHT22;8401;52.528;13.340;2022-09-17T06:00:49;12.70;99.90
16578;DHT22;8401;52.528;13.340;2022-09-17T06:03:16;12.70;99.90
16578;DHT22;8401;52.528;13.340;2022-09-17T06:05:43;12.70;99.90
16578;DHT22;8401;52.528;13.340;2022-09-17T06:08:16;12.60;99.90
16578;DHT22;8401;52.528;13.340;2022-09-17T06:10:42;12.60;99.90
16578;DHT22;8401;52.528;13.340;2022-09-17T06:13:07;12.60;99.90
16578;DHT22;8401;52.528;13.340;2022-09-17T06:15:33;12.60;99.90
16578;DHT22;8401;52.528;13.340;2022-09-17T06:17:58;12.60;99.90
16578;DHT22;8401;52.528;13.340;2022-09-17T06:20:24;12.70;99.90
16578;DHT22;8401;52.528;13.340;2022-09-17T06:22:55;12.70;99.90
16578;DHT22;8401;52.528;13.340;2022-09-17T06:25:20;12.70;99.90
16578;DHT22;8401;52.528;13.340;2022-09-17T06:27:48;12.70;99.90
16578;DHT22;8401;52.528;13.340;2022-09-17T06:30:13;12.70;99.90
16578;DHT22;8401;52.528;13.340;2022-09-17T06:32:39;12.70;99.90
16578;DHT22;8401;52.528;13.340;2022-09-17T06:35:05;12.80;99.90
16578;DHT22;8401;52.528;13.340;2022-09-17T06:37:32;12.80;99.90
16578;DHT22;8401;52.528;13.340;2022-09-17T06:39:58;12.90;99.90
16578;DHT22;8401;52.528;13.340;2022-09-17T06:42:24;12.90;99.90
16578;DHT22;8401;52.528;13.340;2022-09-17T06:44:50;13.00;99.90
16578;DHT22;8401;52.528;13.340;2022-09-17T06:47:16;12.90;99.90
16578;DHT22;8401;52.528;13.340;2022-09-17T06:49:42;12.90;99.90
16578;DHT22;8401;52.528;13.340;2022-09-17T06:52:07;12.90;99.90
16578;DHT22;8401;52.528;13.340;2022-09-17T06:54:33;12.80;99.90
16578;DHT22;8401;52.528;13.340;2022-09-17T06:56:58;12.80;99.90
16578;DHT22;8401;52.528;13.340;2022-09-17T06:59:24;12.80;99.90
16578;DHT22;8401;52.528;13.340;2022-09-17T07:01:51;12.70;99.90
16578;DHT22;8401;52.528;13.340;2022-09-17T07:04:16;12.70;99.90
16578;DHT22;8401;52.528;13.340;2022-09-17T07:06:43;12.80;99.90
16578;DHT22;8401;52.528;13.340;2022-09-17T07:09:10;12.80;99.90
16578;DHT22;8401;52.528;13.340;2022-09-17T07:11:39;12.90;99.90
16578;DHT22;8401;52.528;13.340;2022-09-17T07:14:04;12.80;99.90
16578;DHT22;8401;52.528;13.340;2022-09-17T07:16:31;12.80;99.90
16578;DHT22;8401;52.528;13.340;2022-09-17T07:19:03;12.80;99.90
16578;DHT22;8401;52.528;13.340;2022-09-17T07:21:29;12.80;99.90
16578;DHT22;8401;52.528;13.340;2022-09-17T07:23:55;12.90;99.90
16578;DHT22;8401;52.528;13.340;2022-09-17T07:26:21;13.00;99.90
16578;DHT22;8401;52.528;13.340;2022-09-17T07:28:46;13.00;99.90
16578;DHT22;8401;52.528;13.340;2022-09-17T07:31:12;13.10;99.90
16578;DHT22;8401;52.528;13.340;2022-09-17T07:33:39;13.10;99.90
16578;DHT22;8401;52.528;13.340;2022-09-17T07:36:10;13.10;99.90
16578;DHT22;8401;52.528;13.340;2022-09-17T07:38:36;13.30;99.90
16578;DHT22;8401;52.528;13.340;2022-09-17T07:41:09;13.30;99.90
16578;DHT22;8401;52.528;13.340;2022-09-17T07:43:38;13.30;99.90
16578;DHT22;8401;52.528;13.340;2022-09-17T07:46:05;13.30;99.90
16578;DHT22;8401;52.528;13.340;2022-09-17T07:48:31;13.30;99.90
16578;DHT22;8401;52.528;13.340;2022-09-17T07:50:57;13.30;99.90
16578;DHT22;8401;52.528;13.340;2022-09-17T07:53:23;13.20;99.90
16578;DHT22;8401;52.528;13.340;2022-09-17T07:55:56;13.20;99.90
16578;DHT22;8401;52.528;13.340;2022-09-17T07:58:30;13.30;99.90
16578;DHT22;8401;52.528;13.340;2022-09-17T08:01:01;13.40;99.90
16578;DHT22;8401;52.528;13.340;2022-09-17T08:03:27;13.40;99.90
16578;DHT22;8401;52.528;13.340;2022-09-17T08:05:53;13.40;99.90
16578;DHT22;8401;52.528;13.340;2022-09-17T08:08:19;13.30;99.90
16578;DHT22;8401;52.528;13.340;2022-09-17T08:10:44;13.30;99.90
16578;DHT22;8401;52.528;13.340;2022-09-17T08:13:10;13.30;99.90
16578;DHT22;8401;52.528;13.340;2022-09-17T08:15:35;13.40;99.90
16578;DHT22;8401;52.528;13.340;2022-09-17T08:18:01;13.50;99.90
16578;DHT22;8401;52.528;13.340;2022-09-17T08:20:26;13.60;99.90
16578;DHT22;8401;52.528;13.340;2022-09-17T08:22:59;13.90;99.90
16578;DHT22;8401;52.528;13.340;2022-09-17T08:25:25;14.10;99.90
16578;DHT22;8401;52.528;13.340;2022-09-17T08:27:54;14.10;99.90
16578;DHT22;8401;52.528;13.340;2022-09-17T08:30:21;14.30;99.90
16578;DHT22;8401;52.528;13.340;2022-09-17T08:32:47;14.30;99.90
16578;DHT22;8401;52.528;13.340;2022-09-17T08:35:12;14.30;99.90
16578;DHT22;8401;52.528;13.340;2022-09-17T08:37:38;14.30;99.90
16578;DHT22;8401;52.528;13.340;2022-09-17T08:40:04;14.30;99.90
16578;DHT22;8401;52.528;13.340;2022-09-17T08:42:45;14.00;99.90
16578;DHT22;8401;52.528;13.340;2022-09-17T08:45:14;15.20;99.90
16578;DHT22;8401;52.528;13.340;2022-09-17T08:47:45;16.10;99.90
16578;DHT22;8401;52.528;13.340;2022-09-17T08:50:31;15.50;99.90
16578;DHT22;8401;52.528;13.340;2022-09-17T08:56:09;14.70;99.90
16578;DHT22;8401;52.528;13.340;2022-09-17T09:01:34;16.40;99.90
16578;DHT22;8401;52.528;13.340;2022-09-17T09:07:03;16.30;99.90
16578;DHT22;8401;52.528;13.340;2022-09-17T09:09:42;15.90;99.90
16578;DHT22;8401;52.528;13.340;2022-09-17T09:12:27;16.50;99.90
16578;DHT22;8401;52.528;13.340;2022-09-17T09:17:52;16.90;99.90
16578;DHT22;8401;52.528;13.340;2022-09-17T09:20:29;17.10;99.90
16578;DHT22;8401;52.528;13.340;2022-09-17T09:23:02;16.70;99.90
16578;DHT22;8401;52.528;13.340;2022-09-17T09:25:38;16.10;99.90
16578;DHT22;8401;52.528;13.340;2022-09-17T09:28:34;16.30;99.90
16578;DHT22;8401;52.528;13.340;2022-09-17T09:31:26;16.30;99.90
16578;DHT22;8401;52.528;13.340;2022-09-17T09:33:56;16.40;99.90
16578;DHT22;8401;52.528;13.340;2022-09-17T09:36:26;16.20;99.90
16578;DHT22;8401;52.528;13.340;2022-09-17T09:39:00;16.10;99.90
16578;DHT22;8401;52.528;13.340;2022-09-17T09:41:45;15.90;99.90
16578;DHT22;8401;52.528;13.340;2022-09-17T09:44:13;15.20;99.90
16578;DHT22;8401;52.528;13.340;2022-09-17T09:57:45;14.50;99.90
16578;DHT22;8401;52.528;13.340;2022-09-17T10:00:37;14.80;99.90
16578;DHT22;8401;52.528;13.340;2022-09-17T10:05:38;14.70;99.90
16578;DHT22;8401;52.528;13.340;2022-09-17T10:08:13;15.00;99.90
16578;DHT22;8401;52.528;13.340;2022-09-17T10:10:56;15.30;99.90
16578;DHT22;8401;52.528;13.340;2022-09-17T10:13:23;15.40;99.90
16578;DHT22;8401;52.528;13.340;2022-09-17T10:15:49;15.40;99.90
16578;DHT22;8401;52.528;13.340;2022-09-17T10:20:59;16.80;99.90
16578;DHT22;8401;52.528;13.340;2022-09-17T10:23:27;18.10;99.90
16578;DHT22;8401;52.528;13.340;2022-09-17T10:25:54;18.90;99.90
16578;DHT22;8401;52.528;13.340;2022-09-17T10:28:43;19.20;99.90
16578;DHT22;8401;52.528;13.340;2022-09-17T10:31:09;16.90;99.90
16578;DHT22;8401;52.528;13.340;2022-09-17T10:33:50;16.70;99.90
16578;DHT22;8401;52.528;13.340;2022-09-17T10:36:38;15.80;99.90
16578;DHT22;8401;52.528;13.340;2022-09-17T10:44:24;15.60;99.90
16578;DHT22;8401;52.528;13.340;2022-09-17T10:46:50;15.20;99.90
16578;DHT22;8401;52.528;13.340;2022-09-17T10:49:33;15.30;99.90
16578;DHT22;8401;52.528;13.340;2022-09-17T10:52:24;15.60;99.90
16578;DHT22;8401;52.528;13.340;2022-09-17T10:55:08;15.80;99.90
16578;DHT22;8401;52.528;13.340;2022-09-17T11:00:18;15.80;99.90
16578;DHT22;8401;52.528;13.340;2022-09-17T11:03:08;15.50;99.90
16578;DHT22;8401;52.528;13.340;2022-09-17T11:08:44;18.10;99.90
16578;DHT22;8401;52.528;13.340;2022-09-17T11:11:41;19.40;99.90
16578;DHT22;8401;52.528;13.340;2022-09-17T11:19:47;17.50;99.90
16578;DHT22;8401;52.528;13.340;2022-09-17T11:22:21;17.10;99.90
16578;DHT22;8401;52.528;13.340;2022-09-17T11:25:22;17.10;99.90
16578;DHT22;8401;52.528;13.340;2022-09-17T11:30:48;17.60;99.90
16578;DHT22;8401;52.528;13.340;2022-09-17T11:33:22;17.20;99.90
16578;DHT22;8401;52.528;13.340;2022-09-17T11:35:56;16.50;99.90
16578;DHT22;8401;52.528;13.340;2022-09-17T11:41:36;16.10;99.90
16578;DHT22;8401;52.528;13.340;2022-09-17T11:44:08;16.00;99.90
16578;DHT22;8401;52.528;13.340;2022-09-17T11:46:42;15.90;99.90
16578;DHT22;8401;52.528;13.340;2022-09-17T11:51:53;16.50;99.90
16578;DHT22;8401;52.528;13.340;2022-09-17T11:54:42;16.90;99.90
16578;DHT22;8401;52.528;13.340;2022-09-17T11:57:15;16.90;99.90
16578;DHT22;8401;52.528;13.340;2022-09-17T11:59:53;16.50;99.90
16578;DHT22;8401;52.528;13.340;2022-09-17T12:05:21;16.20;99.90
16578;DHT22;8401;52.528;13.340;2022-09-17T12:08:03;16.40;99.90
16578;DHT22;8401;52.528;13.340;2022-09-17T12:16:09;16.10;99.90
16578;DHT22;8401;52.528;13.340;2022-09-17T12:24:34;15.80;99.90
16578;DHT22;8401;52.528;13.340;2022-09-17T12:30:18;15.90;99.90
16578;DHT22;8401;52.528;13.340;2022-09-17T12:32:58;16.20;99.90
16578;DHT22;8401;52.528;13.340;2022-09-17T12:35:53;16.40;99.90
16578;DHT22;8401;52.528;13.340;2022-09-17T12:44:17;16.10;99.90
16578;DHT22;8401;52.528;13.340;2022-09-17T12:49:37;16.10;99.90
16578;DHT22;8401;52.528;13.340;2022-09-17T12:55:20;15.80;99.90
16578;DHT22;8401;52.528;13.340;2022-09-17T12:58:23;15.80;99.90
16578;DHT22;8401;52.528;13.340;2022-09-17T13:03:54;15.70;99.90
16578;DHT22;8401;52.528;13.340;2022-09-17T13:12:15;16.30;99.90
16578;DHT22;8401;52.528;13.340;2022-09-17T13:15:29;16.40;99.90
16578;DHT22;8401;52.528;13.340;2022-09-17T13:18:07;16.20;99.90
16578;DHT22;8401;52.528;13.340;2022-09-17T13:20:57;16.10;99.90
16578;DHT22;8401;52.528;13.340;2022-09-17T13:26:01;16.40;99.90
16578;DHT22;8401;52.528;13.340;2022-09-17T13:28:37;16.50;99.90
16578;DHT22;8401;52.528;13.340;2022-09-17T13:31:03;16.70;99.90
16578;DHT22;8401;52.528;13.340;2022-09-17T13:33:59;16.60;99.90
16578;DHT22;8401;52.528;13.340;2022-09-17T13:42:05;17.10;99.90
16578;DHT22;8401;52.528;13.340;2022-09-17T13:44:40;17.00;99.90
16578;DHT22;8401;52.528;13.340;2022-09-17T13:49:44;17.10;99.90
16578;DHT22;8401;52.528;13.340;2022-09-17T13:52:12;17.20;99.90
16578;DHT22;8401;52.528;13.340;2022-09-17T13:54:38;16.80;99.90
16578;DHT22;8401;52.528;13.340;2022-09-17T13:57:12;16.40;99.90
16578;DHT22;8401;52.528;13.340;2022-09-17T13:59:51;16.40;99.90
16578;DHT22;8401;52.528;13.340;2022-09-17T14:09:59;16.30;99.90
16578;DHT22;8401;52.528;13.340;2022-09-17T14:17:56;16.70;99.90
16578;DHT22;8401;52.528;13.340;2022-09-17T14:20:23;17.00;99.90
16578;DHT22;8401;52.528;13.340;2022-09-17T14:23:02;17.20;99.90
16578;DHT22;8401;52.528;13.340;2022-09-17T14:25:45;17.00;99.90
16578;DHT22;8401;52.528;13.340;2022-09-17T14:28:21;16.60;99.90
16578;DHT22;8401;52.528;13.340;2022-09-17T14:30:53;15.90;99.90
16578;DHT22;8401;52.528;13.340;2022-09-17T14:33:25;15.30;99.90
16578;DHT22;8401;52.528;13.340;2022-09-17T14:36:17;15.10;99.90
16578;DHT22;8401;52.528;13.340;2022-09-17T14:38:46;14.90;99.90
16578;DHT22;8401;52.528;13.340;2022-09-17T14:43:58;14.90;99.90
16578;DHT22;8401;52.528;13.340;2022-09-17T14:46:29;15.00;99.90
16578;DHT22;8401;52.528;13.340;2022-09-17T14:49:13;14.90;99.90
16578;DHT22;8401;52.528;13.340;2022-09-17T14:51:40;14.90;99.90
16578;DHT22;8401;52.528;13.340;2022-09-17T14:54:13;15.20;99.90
16578;DHT22;8401;52.528;13.340;2022-09-17T14:56:44;15.40;99.90
16578;DHT22;8401;52.528;13.340;2022-09-17T15:01:59;15.70;99.90
16578;DHT22;8401;52.528;13.340;2022-09-17T15:04:26;15.30;99.90
16578;DHT22;8401;52.528;13.340;2022-09-17T15:07:05;15.40;99.90
16578;DHT22;8401;52.528;13.340;2022-09-17T15:09:31;15.30;99.90
16578;DHT22;8401;52.528;13.340;2022-09-17T15:11:59;15.20;99.90
16578;DHT22;8401;52.528;13.340;2022-09-17T15:14:31;15.20;99.90
16578;DHT22;8401;52.528;13.340;2022-09-17T15:17:00;15.30;99.90
16578;DHT22;8401;52.528;13.340;2022-09-17T15:19:33;15.40;99.90
16578;DHT22;8401;52.528;13.340;2022-09-17T15:22:09;15.50;99.90
16578;DHT22;8401;52.528;13.340;2022-09-17T15:27:12;15.50;99.90
16578;DHT22;8401;52.528;13.340;2022-09-17T15:29:42;15.70;99.90
16578;DHT22;8401;52.528;13.340;2022-09-17T15:32:11;15.60;99.90
16578;DHT22;8401;52.528;13.340;2022-09-17T15:34:38;15.30;99.90
16578;DHT22;8401;52.528;13.340;2022-09-17T15:37:23;15.10;99.90
16578;DHT22;8401;52.528;13.340;2022-09-17T15:39:51;15.00;99.90
16578;DHT22;8401;52.528;13.340;2022-09-17T15:42:28;14.90;99.90
16578;DHT22;8401;52.528;13.340;2022-09-17T15:45:20;14.80;99.90
16578;DHT22;8401;52.528;13.340;2022-09-17T15:47:57;14.70;99.90
16578;DHT22;8401;52.528;13.340;2022-09-17T15:50:31;14.70;99.90
16578;DHT22;8401;52.528;13.340;2022-09-17T15:53:25;14.50;99.90
16578;DHT22;8401;52.528;13.340;2022-09-17T15:58:58;14.60;99.90
16578;DHT22;8401;52.528;13.340;2022-09-17T16:08:59;14.00;99.90
16578;DHT22;8401;52.528;13.340;2022-09-17T16:11:30;13.90;99.90
16578;DHT22;8401;52.528;13.340;2022-09-17T16:13:57;13.60;99.90
16578;DHT22;8401;52.528;13.340;2022-09-17T16:16:32;13.50;99.90
16578;DHT22;8401;52.528;13.340;2022-09-17T16:18:58;13.40;99.90
16578;DHT22;8401;52.528;13.340;2022-09-17T16:21:24;13.50;99.90
16578;DHT22;8401;52.528;13.340;2022-09-17T16:23:50;13.50;99.90
16578;DHT22;8401;52.528;13.340;2022-09-17T16:26:20;13.50;99.90
16578;DHT22;8401;52.528;13.340;2022-09-17T16:28:49;13.40;99.90
16578;DHT22;8401;52.528;13.340;2022-09-17T16:31:17;13.40;99.90
16578;DHT22;8401;52.528;13.340;2022-09-17T16:33:43;13.30;99.90
16578;DHT22;8401;52.528;13.340;2022-09-17T16:36:09;13.20;99.90
16578;DHT22;8401;52.528;13.340;2022-09-17T16:38:35;13.10;99.90
16578;DHT22;8401;52.528;13.340;2022-09-17T16:41:04;13.10;99.90
16578;DHT22;8401;52.528;13.340;2022-09-17T16:43:29;13.20;99.90
16578;DHT22;8401;52.528;13.340;2022-09-17T16:46:05;13.20;99.90
16578;DHT22;8401;52.528;13.340;2022-09-17T16:48:32;13.10;99.90
16578;DHT22;8401;52.528;13.340;2022-09-17T16:50:58;13.00;99.90
16578;DHT22;8401;52.528;13.340;2022-09-17T16:53:24;13.00;99.90
16578;DHT22;8401;52.528;13.340;2022-09-17T16:55:50;12.80;99.90
16578;DHT22;8401;52.528;13.340;2022-09-17T16:58:15;12.80;99.90
16578;DHT22;8401;52.528;13.340;2022-09-17T17:00:42;12.80;99.90
16578;DHT22;8401;52.528;13.340;2022-09-17T17:03:13;12.90;99.90
16578;DHT22;8401;52.528;13.340;2022-09-17T17:05:39;13.00;99.90
16578;DHT22;8401;52.528;13.340;2022-09-17T17:08:05;13.00;99.90
16578;DHT22;8401;52.528;13.340;2022-09-17T17:10:32;12.80;99.90
16578;DHT22;8401;52.528;13.340;2022-09-17T17:12:57;12.80;99.90
16578;DHT22;8401;52.528;13.340;2022-09-17T17:15:23;12.80;99.90
16578;DHT22;8401;52.528;13.340;2022-09-17T17:17:49;12.90;99.90
16578;DHT22;8401;52.528;13.340;2022-09-17T17:20:14;12.90;99.90
16578;DHT22;8401;52.528;13.340;2022-09-17T17:22:41;12.90;99.90
16578;DHT22;8401;52.528;13.340;2022-09-17T17:25:12;12.90;99.90
16578;DHT22;8401;52.528;13.340;2022-09-17T17:27:38;12.80;99.90
16578;DHT22;8401;52.528;13.340;2022-09-17T17:30:07;12.70;99.90
16578;DHT22;8401;52.528;13.340;2022-09-17T17:32:35;12.70;99.90
16578;DHT22;8401;52.528;13.340;2022-09-17T17:35:01;12.70;99.90
16578;DHT22;8401;52.528;13.340;2022-09-17T17:37:27;12.70;99.90
16578;DHT22;8401;52.528;13.340;2022-09-17T17:39:52;12.60;99.90
16578;DHT22;8401;52.528;13.340;2022-09-17T17:42:19;12.60;99.90
16578;DHT22;8401;52.528;13.340;2022-09-17T17:44:44;12.70;99.90
16578;DHT22;8401;52.528;13.340;2022-09-17T17:47:11;12.60;99.90
16578;DHT22;8401;52.528;13.340;2022-09-17T17:49:37;12.60;99.90
16578;DHT22;8401;52.528;13.340;2022-09-17T17:52:03;12.60;99.90
16578;DHT22;8401;52.528;13.340;2022-09-17T17:54:29;12.70;99.90
16578;DHT22;8401;52.528;13.340;2022-09-17T17:56:55;12.60;99.90
16578;DHT22;8401;52.528;13.340;2022-09-17T17:59:21;12.50;99.90
16578;DHT22;8401;52.528;13.340;2022-09-17T18:01:46;12.30;99.90
16578;DHT22;8401;52.528;13.340;2022-09-17T18:04:12;12.20;99.90
16578;DHT22;8401;52.528;13.340;2022-09-17T18:06:37;12.10;99.90
16578;DHT22;8401;52.528;13.340;2022-09-17T18:09:04;12.10;99.90
16578;DHT22;8401;52.528;13.340;2022-09-17T18:11:30;12.00;99.90
16578;DHT22;8401;52.528;13.340;2022-09-17T18:13:57;12.00;99.90
16578;DHT22;8401;52.528;13.340;2022-09-17T18:16:24;12.00;99.90
16578;DHT22;8401;52.528;13.340;2022-09-17T18:18:50;12.00;99.90
16578;DHT22;8401;52.528;13.340;2022-09-17T18:21:18;11.90;99.90
16578;DHT22;8401;52.528;13.340;2022-09-17T18:23:44;11.80;99.90
16578;DHT22;8401;52.528;13.340;2022-09-17T18:26:12;11.70;99.90
16578;DHT22;8401;52.528;13.340;2022-09-17T18:28:38;11.80;99.90
16578;DHT22;8401;52.528;13.340;2022-09-17T18:31:06;11.80;99.90
16578;DHT22;8401;52.528;13.340;2022-09-17T18:33:33;11.80;99.90
16578;DHT22;8401;52.528;13.340;2022-09-17T18:36:02;11.80;99.90
16578;DHT22;8401;52.528;13.340;2022-09-17T18:38:28;11.90;99.90
16578;DHT22;8401;52.528;13.340;2022-09-17T18:40:54;11.90;99.90
16578;DHT22;8401;52.528;13.340;2022-09-17T18:43:20;11.90;99.90
16578;DHT22;8401;52.528;13.340;2022-09-17T18:45:56;11.70;99.90